Burlington, Colorado
Current Conditions -  °F | °C
As of 3:53 PM on Thursday 23 Oct 2014 (Local Time) from KITR Reporting Station
Clear Clear  
Wind Chill: 74°   Ceiling: Unl
Heat Index: 74°   Visibility: 10mi
Dew Point: 37°   Wind: 8mph
Humidity: 26%   Direction: 240°WSW
Pressure: 30.09"   Gusts: NA
Location:  39.31°N, 102.27°W
Report Text: KITR 232153Z AUTO 24007KT 10SM CLR 23/03 A3009 RMK AO2 SLP153 T02330028
Loading
Personal Weather Stations






























Interactive Weather Map
Tropical Storm Tracking
New forecast layout! Learn more

10-Day Weather Forecast

Advertisements
Track Severe Weather on mobile